AirNav   Pilot Hours Calculator
 
 584 users online  

58MO Mercy Hospital Jefferson Heliport
Crystal City, Missouri, USA

GOING TO CRYSTAL CITY?


FAA INFORMATION EFFECTIVE 01 DECEMBER 2022

Location

FAA Identifier: 58MO
Lat/Long: 38-11-44.0100N 090-23-36.1800W
38-11.733500N 090-23.603000W
38.1955583,-90.3933833
(estimated)
Elevation: 435 ft. / 133 m (estimated)
Variation: 02E (1985)
From city: 1 mile S of CRYSTAL CITY, MO
Time zone: UTC -6 (UTC -5 during Daylight Saving Time)
Zip code: 63028

Heliport Operations

Heliport use: Private use, MEDICAL.
Activation date: 07/1989
Control tower: no
ARTCC: KANSAS CITY CENTER
FSS: SAINT LOUIS FLIGHT SERVICE STATION
Attendance: CONTINUOUS
Wind indicator: yes
Segmented circle: yes

Nearby radio navigation aids

VOR radial/distance  VOR name  Freq  Var
FAMr345/32.2FARMINGTON VORTAC115.7001E
TOYr210/39.5TROY VORTAC116.0004E

Heliport Services

Runway Information

Helipad H1

Dimensions: 60 x 60 ft. / 18 x 18 m
Surface: concrete
Latitude: 38-11.733500N
Longitude: 090-23.603000W
Elevation: 435.0 ft.
Traffic pattern: leftleft

Heliport Ownership and Management from official FAA records

Ownership: Privately-owned
Owner: MERCY HOSPITAL JEFFERSON
HWY 61 SOUTH
CRYSTAL CITY, MO 63019
Phone 314-933-1000
Manager: JOSEPH COPUS
1400 US HIGHWAY 61
CRYSTAL CITY, MO 63019
Phone 314-933-1000
SENIOR MANAGER OF FACILITIES.

Heliport Operational Statistics

Aircraft based on the field: 1
Helicopters: 1
    

Additional Remarks

A52-H1 70' BLDG 75' NORTH; 30' TREES 100' EAST & SOUTH.
FOR CD CTC ST LOUIS APCH AT 314-890-1018.

Instrument Procedures

There are no published instrument procedures at 58MO.

Some nearby airports with instrument procedures:

KFES - Festus Memorial Airport (0 nm E)
8WC - Washington County Airport (23 nm SW)
KCPS - St Louis Downtown Airport (25 nm NE)
KFAM - Farmington Regional Airport (26 nm S)
KSUS - Spirit of St Louis Airport (31 nm NW)
 
Loc | Ops | Rwys | IFR | FBO | Links
Com | Nav | Svcs | Stats | Notes
Area around 58MO (Mercy Hospital Jefferson Heliport)
 
Road maps at: MapQuest Bing Google
 
Aerial photo
No photo
 
Sectional chart

 
Airport distance calculator
Flying to Mercy Hospital Jefferson Heliport? Find the distance to fly.

From to 58MO

Sunrise and sunset
Times for 07-Dec-2022
 Local
(UTC-6)
 Zulu
(UTC)
Morning civil twilight06:3612:36
Sunrise07:0613:06
Sunset16:4022:40
Evening civil twilight17:1023:10

Current date and time
Zulu (UTC)  07-Dec-2022 07:19:46
Local (UTC-6)  07-Dec-2022 01:19:46
 
METAR
KCPS 
25nm NE 
070653Z AUTO 02004KT 4SM -RA BR OVC003 08/07 A3009 RMK AO2 SLP191 P0000 T00780072
KFAM 
26nm S 
070656Z AUTO 32008KT 7SM OVC005 09/09 A3008 RMK AO2 SLP196 T00940094
KSUS 
30nm NW 
070701Z AUTO 00000KT 2SM BR OVC002 07/07 A3009 RMK AO2 T00720072
KPCD 
32nm SE 
070655Z AUTO 31003KT 3/4SM BR OVC003 08/08 A3007 RMK AO2 T00830083
KSAR 
33nm E 
070655Z AUTO 03003KT 3/4SM BR OVC002 08/08 A3008 RMK AO2 T00770077
KBLV 
33nm NE 
070655Z 36004KT 1 7/8SM BR OVC003 08/08 A3011 RMK AO2A CIG 002 RWY32R SLPNO ALSTG ESTMD RVRNO TSNO $
KSTL 
33nm N 
070651Z 35004KT 1 3/4SM BR OVC003 08/07 A3010 RMK AO2 SLP195 T00780067
KUUV 
36nm W 
070655Z AUTO 35004KT 1/2SM FG OVC002 07/07 A3010 RMK AO2
KFYG 
37nm NW 
070655Z AUTO 00000KT 1 1/4SM BR 07/07 A3009 RMK AO2
KSET 
44nm N 
070654Z AUTO 01004KT 3SM BR FEW005 OVC013 08/07 A3009 RMK AO2 SLP190 T00780067
TAF
KCPS 
25nm NE 
070520Z 0706/0806 VRB04KT 1SM -DZ BR OVC003 FM071500 VRB04KT 5SM BR OVC008 FM071600 VRB03KT P6SM OVC007 FM071800 VRB03KT P6SM OVC015 FM072200 VRB04KT P6SM OVC035
KSUS 
30nm NW 
070520Z 0706/0806 VRB03KT 1SM -DZ BR OVC003 FM071500 VRB03KT 4SM BR OVC004 FM071600 VRB03KT P6SM OVC007 FM071800 VRB03KT P6SM OVC015 FM072100 VRB04KT P6SM OVC035
NOTAMs
Click for the latest NOTAMs
NOTAMs are issued by the DoD/FAA and will open in a separate window not controlled by AirNav.

 

 
 

Would you like to see your business listed on this page?

 If your business provides an interesting product or service to pilots, flight crews, aircraft, or users of the Mercy Hospital Jefferson Heliport, you should consider listing it here.  To start the listing process, click on the button below
 
Add a business
 

Other Pages about Mercy Hospital Jefferson Heliport

Update a link
 
Copyright © AirNav, LLC. All rights reserved. Privacy Policy  Contact